Flight Track Log - Related Links

Times and Time Zones

All times are in EDT time to prevent confusion due to time zone crossing. See the N487SR flight status page for this flight to view local times or setup timezone preferences in your user account.

Time Position Orientation Groundspeed Altitude Reporting Facility
EDT Latitude Longitude Course Direction KTS MPH feet Rate Location/Type
Thu 04:36:31 PM 43.0500 -88.2333 324° Northwest 107 123 1,300  Level KMKE
Thu 04:37:37 PM 43.0833 -88.2667 324° Northwest 136 157 2,200 772 Climbing KMKE
Thu 04:38:12 PM 43.0778 -88.2922 253° West 142 163 2,600 680 Climbing Chicago Center
Thu 04:39:14 PM 43.0689 -88.3489 258° West 149 171 3,300 726 Climbing Chicago Center
Thu 04:40:16 PM 43.0617 -88.4053 260° West 150 173 4,100 726 Climbing Chicago Center
Thu 04:41:18 PM 43.0575 -88.4611 264° West 149 171 4,800 677 Climbing Chicago Center
Thu 04:42:20 PM 43.0508 -88.5161 261° West 147 169 5,500 528 Climbing Chicago Center
Thu 04:43:23 PM 43.0442 -88.5708 261° West 146 168 5,900 242 Climbing Chicago Center
Thu 04:44:24 PM 43.0364 -88.6414 261° West 155 178 6,000 48 Climbing Chicago Center
Thu 04:45:27 PM 43.0292 -88.7031 261° West 162 186 6,000 -48 Level Chicago Center
Thu 04:46:29 PM 43.0239 -88.7636 263° West 161 185 5,900  Descending Chicago Center
Thu 04:47:31 PM 43.0156 -88.8258 260° West 159 183 6,000 48 Climbing Chicago Center
Thu 04:48:33 PM 43.0097 -88.8817 262° West 158 182 6,000  Level Chicago Center
Thu 04:49:35 PM 43.0022 -88.9481 261° West 154 177 6,000 242 Level Chicago Center
Thu 04:50:37 PM 42.9961 -89.0025 261° West 150 173 6,500 435 Climbing Chicago Center
Thu 04:51:39 PM 42.9911 -89.0519 262° West 139 160 6,900 435 Climbing Chicago Center
Thu 04:52:41 PM 42.9853 -89.1000 261° West 129 148 7,400 435 Climbing Chicago Center
Thu 04:53:43 PM 42.9800 -89.1483 262° West 128 147 7,800 290 Climbing Chicago Center
Thu 04:54:45 PM 42.9736 -89.2014 261° West 139 160 8,000 97 Climbing Chicago Center
Thu 04:55:47 PM 42.9656 -89.2686 261° West 153 176 8,000  Level Chicago Center
Thu 04:56:50 PM 42.9592 -89.3281 262° West 158 182 8,000  Level Chicago Center
Thu 04:57:52 PM 42.9514 -89.3881 260° West 161 185 8,000  Level Chicago Center
Thu 04:58:54 PM 42.9450 -89.4475 262° West 158 182 8,000  Level Chicago Center
Thu 04:59:56 PM 42.9375 -89.5067 260° West 158 182 8,000  Level Chicago Center
Thu 05:00:58 PM 42.9294 -89.5781 261° West 163 188 8,000  Level Chicago Center
Thu 05:02:00 PM 42.9231 -89.6383 262° West 162 186 8,000 -48 Level Chicago Center
Thu 05:03:02 PM 42.9156 -89.6989 260° West 163 188 7,900  Descending Chicago Center
Thu 05:04:04 PM 42.9083 -89.7589 261° West 162 186 8,000 48 Climbing Chicago Center
Thu 05:05:06 PM 42.9006 -89.8186 260° West 160 184 8,000  Level Chicago Center
Thu 05:06:09 PM 42.8942 -89.8917 263° West 165 190 8,000  Level Chicago Center
Thu 05:07:11 PM 42.8872 -89.9464 260° West 164 189 8,000  Level Chicago Center
Thu 05:08:13 PM 42.8794 -90.0061 260° West 162 186 8,000  Level Chicago Center
Thu 05:09:15 PM 42.8711 -90.0767 261° West 160 184 8,000  Level Chicago Center
Thu 05:10:17 PM 42.8628 -90.1353 259° West 159 183 8,000  Level Chicago Center
Thu 05:11:19 PM 42.8578 -90.1942 263° West 158 182 8,000  Level Chicago Center
Thu 05:12:21 PM 42.8503 -90.2517 260° West 155 178 8,000  Level Chicago Center
Thu 05:13:23 PM 42.8428 -90.3092 260° West 156 180 8,000  Level Chicago Center
Thu 05:14:25 PM 42.8325 -90.3767 258° West 153 176 8,000  Level Chicago Center
Thu 05:15:27 PM 42.8253 -90.4356 261° West 157 181 8,000 -48 Level Chicago Center
Thu 05:16:29 PM 42.8181 -90.4950 261° West 160 184 7,900  Descending Chicago Center
Thu 05:17:31 PM 42.8114 -90.5531 261° West 158 182 8,000 48 Climbing Chicago Center
Thu 05:18:33 PM 42.8028 -90.6111 259° West 157 181 8,000 -97 Level Chicago Center
Thu 05:19:35 PM 42.7933 -90.6806 260° West 157 181 7,800 -48 Descending Chicago Center
Thu 05:20:37 PM 42.7858 -90.7392 260° West 158 182 7,900  Climbing Chicago Center
Thu 05:21:39 PM 42.7789 -90.7983 261° West 159 183 7,800  Descending Chicago Center
Thu 05:22:41 PM 42.7703 -90.8553 258° West 156 180 7,900 48 Climbing Chicago Center
Thu 05:23:43 PM 42.7633 -90.9144 261° West 158 182 7,900 -48 Level Chicago Center
Thu 05:24:45 PM 42.7536 -90.9825 259° West 155 178 7,800  Descending Chicago Center
Thu 05:25:47 PM 42.7461 -91.0411 260° West 157 181 7,900  Climbing Chicago Center
Thu 05:26:49 PM 42.7381 -91.1000 259° West 160 184 7,800  Descending Chicago Center
Thu 05:27:51 PM 42.7303 -91.1578 260° West 157 181 7,900 48 Climbing Chicago Center
Thu 05:28:53 PM 42.7228 -91.2167 260° West 158 182 7,900  Level Chicago Center
Thu 05:29:55 PM 42.7131 -91.2853 259° West 157 181 7,900 48 Level Chicago Center
Thu 05:30:57 PM 42.7056 -91.3436 260° West 157 181 8,000 48 Climbing Chicago Center
Thu 05:32:00 PM 42.6978 -91.4019 260° West 157 181 8,000 -144 Level Chicago Center
Thu 05:33:02 PM 42.6897 -91.4608 259° West 158 182 7,700 -290 Descending Chicago Center
Thu 05:34:04 PM 42.6808 -91.5228 259° West 163 188 7,400 -339 Descending Chicago Center
Thu 05:35:06 PM 42.6722 -91.5864 260° West 167 192 7,000 -387 Descending Chicago Center
Thu 05:36:08 PM 42.6642 -91.6506 260° West 170 196 6,600 -484 Descending Chicago Center
Thu 05:37:10 PM 42.6536 -91.7219 259° West 164 189 6,000 -532 Descending Chicago Center
Thu 05:38:12 PM 42.6447 -91.7822 259° West 163 188 5,500 -435 Descending Chicago Center
Thu 05:39:14 PM 42.6367 -91.8414 260° West 162 186 5,100 -432 Descending Chicago Center
Thu 05:40:17 PM 42.6272 -91.9017 258° West 162 186 4,600 -484 Descending Chicago Center
Thu 05:41:18 PM 42.6181 -91.9611 258° West 163 188 4,100 -532 Descending Chicago Center
Thu 05:42:21 PM 42.6086 -92.0292 259° West 159 183 3,500 -528 Descending Chicago Center
Thu 05:43:23 PM 42.6008 -92.0858 259° West 155 178 3,000 -435 Descending Chicago Center
Thu 05:44:25 PM 42.5922 -92.1428 258° West 155 178 2,600 -242 Descending Chicago Center
Thu 05:45:27 PM 42.5839 -92.1997 259° West 155 178 2,500 -97 Descending Chicago Center
Thu 05:46:29 PM 42.5764 -92.2511 259° West 149 171 2,400 -242 Descending Chicago Center
Thu 05:47:31 PM 42.5589 -92.3106 248° West 144 166 2,000 -435 Descending Chicago Center
Thu 05:48:33 PM 42.5425 -92.3558 244° Southwest 141 162 1,500 -387 Descending Chicago Center
Thu 05:49:35 PM 42.5347 -92.3861 251° West 128 147 1,200 -290 Descending Chicago Center
Thu 05:51:00 PM 42.5500 -92.4000 270° West  Level FlightAware Approximate
Thu 05:58:00 PM 42.5571 -92.4003 270° West  Level Estimated

Login

Don't have an account? Register now (free) for customized features, flight alerts, and more!